Terminal Aerodrome Forecast
Issued by NWS

Home | Current Version | Previous Version | Text Only | Print | Product List | Glossary On
Versions: 1 2 3 4 5 6 7 8 9 10 11 12
000
FTUS42 TJSJ 031148
TAFJBQ
TAF
TJBQ 031148Z 0312/0412 03003KT P6SM SCT050
     FM031350 06011KT P6SM VCSH SCT040
     FM031800 02008KT P6SM VCSH SCT030 BKN050
     FM032250 08006KT P6SM SCT040
      AMD NOT SKED 0402/0411=

USA.gov is the U.S. government's official web portal to all federal, state and local government web resources and services.